Time;durP1;ratioP1;P1;durP2;ratioP2;P2;SDS_P1;SDS_P2;PMS_P1;PMS_P2;Temp;Humidity;BMP_temperature;BMP_pressure;BME280_temperature;BME280_humidity;BME280_pressure;Samples;Min_cycle;Max_cycle;Signal;HPM_P1;HPM_P2
2023/07/02 00:01:11;;;;;;;19.17;7.92;;;;;;;20.06;79.27;99359.16;1728046;83;21608;-81
2023/07/02 00:04:19;;;;;;;15.08;7.67;;;;;;;20.09;79.35;99357.78;1728122;83;21247;-80
2023/07/02 00:07:25;;;;;;;19.02;7.83;;;;;;;20.20;79.04;99358.75;1729175;83;21330;-80
2023/07/02 00:10:32;;;;;;;12.78;7.15;;;;;;;20.22;78.79;99359.31;1727914;83;21335;-81
2023/07/02 00:13:38;;;;;;;12.95;7.00;;;;;;;20.29;78.30;99350.23;1729105;83;21361;-81
2023/07/02 00:16:46;;;;;;;14.47;7.22;;;;;;;20.24;78.32;99359.91;1729201;83;21338;-82
2023/07/02 00:19:53;;;;;;;18.85;7.80;;;;;;;20.21;78.47;99365.41;1729161;83;21295;-81
2023/07/02 00:23:00;;;;;;;15.75;7.55;;;;;;;20.20;78.92;99365.69;1728808;82;21342;-81
2023/07/02 00:26:07;;;;;;;17.45;7.35;;;;;;;20.32;78.69;99361.63;1727728;83;21963;-82
2023/07/02 00:29:13;;;;;;;16.05;7.20;;;;;;;20.29;78.85;99358.56;1729207;83;21310;-82
2023/07/02 00:32:19;;;;;;;14.28;7.03;;;;;;;20.36;79.31;99361.95;1729096;83;21311;-82
2023/07/02 00:35:23;;;;;;;15.18;7.45;;;;;;;20.57;78.73;99365.80;1729147;83;21346;-82
2023/07/02 00:38:30;;;;;;;18.17;7.42;;;;;;;20.47;79.20;99365.16;1729232;83;21944;-82
2023/07/02 00:41:35;;;;;;;17.32;7.30;;;;;;;20.52;79.23;99366.59;1728177;83;21311;-81
2023/07/02 00:44:42;;;;;;;11.90;6.70;;;;;;;20.33;80.01;99359.16;1727953;83;21323;-82
2023/07/02 00:47:41;;;;;;;15.53;7.20;;;;;;;20.43;79.77;99362.03;1727699;83;21306;-82
2023/07/02 00:50:46;;;;;;;14.70;6.62;;;;;;;20.47;79.90;99359.59;1728892;83;21366;-81
2023/07/02 00:53:58;;;;;;;16.12;6.75;;;;;;;20.49;79.86;99364.33;1727637;83;21306;-81
2023/07/02 00:57:02;;;;;;;19.80;6.87;;;;;;;20.42;79.92;99361.75;1728270;83;21597;-82
2023/07/02 01:00:06;;;;;;;17.37;6.92;;;;;;;20.42;80.09;99361.75;1729075;83;21306;-82
2023/07/02 01:03:13;;;;;;;16.23;6.78;;;;;;;20.51;80.05;99358.50;1728185;83;21329;-82
2023/07/02 01:06:24;;;;;;;20.75;6.85;;;;;;;20.61;79.54;99360.00;1728970;83;21353;-81
2023/07/02 01:09:27;;;;;;;12.98;6.30;;;;;;;20.55;80.07;99358.26;1729065;83;21290;-82
2023/07/02 01:12:32;;;;;;;22.50;6.72;;;;;;;20.55;80.16;99346.59;1727745;83;22673;-81
2023/07/02 01:15:38;;;;;;;13.18;5.83;;;;;;;20.61;79.97;99357.22;1729115;83;21299;-82
2023/07/02 01:18:44;;;;;;;14.68;6.35;;;;;;;20.58;80.08;99347.46;1729091;83;21320;-82
2023/07/02 01:21:52;;;;;;;19.62;6.25;;;;;;;20.65;80.00;99345.83;1728497;83;21318;-81
2023/07/02 01:24:59;;;;;;;15.55;6.37;;;;;;;20.57;80.09;99351.34;1723321;83;21351;-81
2023/07/02 01:28:06;;;;;;;8.55;5.78;;;;;;;20.77;79.21;99349.83;1721576;83;21317;-81
2023/07/02 01:31:13;;;;;;;17.75;6.42;;;;;;;20.73;79.20;99350.08;1721600;83;21401;-81
2023/07/02 01:34:18;;;;;;;20.70;6.83;;;;;;;20.62;79.41;99349.16;1707708;83;21327;-81
2023/07/02 01:37:25;;;;;;;17.77;6.50;;;;;;;20.49;80.06;99352.38;1714388;83;21319;-82
2023/07/02 01:40:30;;;;;;;18.00;6.15;;;;;;;20.57;79.91;99343.02;1721506;83;21933;-82
2023/07/02 01:43:36;;;;;;;12.00;7.08;;;;;;;20.50;80.53;99353.49;1720202;83;21526;-82
2023/07/02 01:46:42;;;;;;;15.32;6.08;;;;;;;20.34;80.92;99346.95;1721732;83;21306;-82
2023/07/02 01:49:49;;;;;;;13.48;6.30;;;;;;;20.12;82.82;99348.94;1721604;83;21299;-81
2023/07/02 01:52:49;;;;;;;21.02;6.40;;;;;;;20.05;83.12;99351.11;1720825;83;21346;-81
2023/07/02 01:55:57;;;;;;;15.75;6.20;;;;;;;20.12;83.04;99348.94;1721305;83;21901;-82
2023/07/02 01:59:03;;;;;;;15.58;6.40;;;;;;;20.32;82.53;99351.07;1721759;83;21347;-81
2023/07/02 02:02:08;;;;;;;9.60;5.97;;;;;;;20.30;82.73;99350.52;1721152;83;21354;-82
2023/07/02 02:05:14;;;;;;;10.65;6.00;;;;;;;20.30;82.84;99351.91;1721655;83;21307;-82
2023/07/02 02:08:20;;;;;;;11.83;6.37;;;;;;;20.30;83.02;99351.34;1720317;83;21311;-81
2023/07/02 02:11:27;;;;;;;13.22;6.17;;;;;;;20.33;82.98;99347.22;1714140;83;21901;-82
2023/07/02 02:14:33;;;;;;;11.22;6.00;;;;;;;20.57;82.40;99349.96;1702616;84;21321;-80
2023/07/02 02:17:39;;;;;;;15.68;6.30;;;;;;;20.64;81.51;99344.17;1717846;83;21858;-81
2023/07/02 02:20:45;;;;;;;12.25;5.92;;;;;;;20.75;80.92;99339.52;1721602;83;21334;-81
2023/07/02 02:23:51;;;;;;;20.15;6.35;;;;;;;20.91;80.35;99346.32;1720421;83;22595;-82
2023/07/02 02:26:59;;;;;;;9.75;5.60;;;;;;;20.89;79.85;99347.71;1727598;83;21367;-81
2023/07/02 02:30:04;;;;;;;11.60;5.17;;;;;;;20.91;79.69;99346.32;1728927;82;21379;-81
2023/07/02 02:33:10;;;;;;;10.95;5.33;;;;;;;20.77;80.35;99347.05;1727825;83;21354;-81
2023/07/02 02:36:17;;;;;;;9.63;5.67;;;;;;;20.93;79.76;99349.66;1728651;83;21849;-81
2023/07/02 02:39:17;;;;;;;12.30;5.35;;;;;;;20.95;79.79;99351.36;1728731;83;21306;-81
2023/07/02 02:42:24;;;;;;;14.18;5.50;;;;;;;20.89;79.50;99351.33;1727736;83;21397;-81
2023/07/02 02:45:30;;;;;;;9.23;5.55;;;;;;;20.96;79.31;99351.08;1728561;83;21858;-81
2023/07/02 02:48:37;;;;;;;9.70;5.15;;;;;;;21.08;78.87;99358.68;1728544;83;21330;-81
2023/07/02 02:51:43;;;;;;;13.32;5.97;;;;;;;20.93;79.67;99358.55;1728577;83;21299;-82
2023/07/02 02:54:52;;;;;;;8.33;5.75;;;;;;;21.06;79.39;99351.14;1727402;83;21363;-82
2023/07/02 02:57:59;;;;;;;10.93;5.50;;;;;;;20.99;79.97;99351.11;1728058;82;22008;-81
2023/07/02 03:01:10;;;;;;;17.12;5.35;;;;;;;21.07;79.93;99355.59;1728535;83;21311;-81
2023/07/02 03:04:13;;;;;;;11.38;5.80;;;;;;;21.29;79.25;99354.62;1725480;83;21928;-82
2023/07/02 03:07:13;;;;;;;13.68;6.50;;;;;;;21.30;79.36;99354.34;1728708;83;21870;-82
2023/07/02 03:13:11;;;;;;;8.48;5.37;;;;;;;21.63;78.53;99357.31;1727758;83;21322;-80
2023/07/02 03:16:17;;;;;;;9.50;5.50;;;;;;;21.61;78.47;99358.15;1727368;83;21335;-80
2023/07/02 03:19:26;;;;;;;20.62;6.25;;;;;;;21.80;78.05;99353.48;1728525;83;21880;-81
2023/07/02 03:22:31;;;;;;;14.23;5.72;;;;;;;21.86;77.71;99353.78;1727364;83;21311;-81
2023/07/02 03:25:38;;;;;;;10.68;5.50;;;;;;;21.82;78.07;99357.66;1728413;83;21303;-81
2023/07/02 03:28:44;;;;;;;15.10;5.33;;;;;;;21.83;77.98;99354.31;1727572;83;21660;-81
2023/07/02 03:31:51;;;;;;;8.00;5.78;;;;;;;21.95;77.59;99356.31;1728612;83;21343;-81
2023/07/02 03:34:56;;;;;;;8.18;5.42;;;;;;;21.92;77.70;99350.76;1727256;83;21339;-81
2023/07/02 03:38:01;;;;;;;14.43;5.60;;;;;;;21.97;77.75;99356.03;1728583;83;21299;-81
2023/07/02 03:41:08;;;;;;;10.98;5.87;;;;;;;22.07;77.77;99356.08;1728736;83;21318;-81
2023/07/02 03:44:12;;;;;;;9.58;5.20;;;;;;;22.17;77.40;99358.36;1727337;83;21370;-81
2023/07/02 03:47:19;;;;;;;11.00;5.28;;;;;;;22.17;77.36;99361.14;1728607;83;21311;-81
2023/07/02 03:50:27;;;;;;;7.90;5.37;;;;;;;22.29;77.16;99367.00;1728517;83;21315;-81
2023/07/02 03:53:33;;;;;;;9.33;5.30;;;;;;;22.42;76.15;99358.94;1728318;83;22691;-81
2023/07/02 03:56:40;;;;;;;9.98;5.72;;;;;;;22.36;76.35;99364.23;1728548;83;21287;-81
2023/07/02 03:59:47;;;;;;;9.60;5.03;;;;;;;22.45;75.84;99362.58;1728659;83;21890;-81
2023/07/02 04:02:53;;;;;;;14.58;5.35;;;;;;;22.89;74.43;99368.17;1727891;83;21342;-81
2023/07/02 04:05:59;;;;;;;11.68;5.80;;;;;;;22.94;74.30;99365.38;1728550;83;21334;-81
2023/07/02 04:09:05;;;;;;;14.47;6.70;;;;;;;22.81;74.34;99367.30;1728585;83;21311;-81
2023/07/02 04:12:11;;;;;;;10.20;5.75;;;;;;;22.82;74.72;99372.62;1728641;83;21302;-81
2023/07/02 04:15:17;;;;;;;10.80;5.58;;;;;;;22.92;74.84;99375.99;1727421;83;21335;-81
2023/07/02 04:18:23;;;;;;;9.65;5.60;;;;;;;22.91;74.63;99372.91;1720807;83;21624;-81
2023/07/02 04:21:30;;;;;;;14.78;5.75;;;;;;;23.02;74.12;99373.75;1722485;83;21865;-81
2023/07/02 04:24:36;;;;;;;16.65;5.28;;;;;;;23.09;73.88;99377.91;1727899;83;21323;-81
2023/07/02 04:27:43;;;;;;;13.00;5.50;;;;;;;23.32;72.90;99382.61;1728379;82;21334;-81
2023/07/02 04:30:51;;;;;;;8.78;5.80;;;;;;;23.33;73.13;99377.30;1729081;83;21300;-81
2023/07/02 04:33:58;;;;;;;10.50;5.37;;;;;;;23.62;72.24;99377.48;1727644;83;21350;-80
2023/07/02 04:37:04;;;;;;;9.65;5.83;;;;;;;23.63;72.13;99381.41;1729103;83;21965;-80
2023/07/02 04:40:11;;;;;;;9.13;5.72;;;;;;;23.81;71.46;99388.92;1729432;83;22813;-80
2023/07/02 04:43:18;;;;;;;11.73;5.67;;;;;;;24.00;70.63;99384.36;1729062;83;21295;-80
2023/07/02 04:46:18;;;;;;;11.40;5.00;;;;;;;24.22;69.53;99381.14;1729142;83;21318;-81
2023/07/02 04:49:24;;;;;;;7.22;5.50;;;;;;;24.18;69.60;99384.23;1729184;83;21326;-81
2023/07/02 04:52:31;;;;;;;11.00;6.67;;;;;;;24.56;68.08;99384.58;1727790;83;21295;-80
2023/07/02 04:55:35;;;;;;;10.35;5.75;;;;;;;24.76;67.37;99381.64;1728085;83;21914;-81
2023/07/02 04:58:41;;;;;;;13.15;5.67;;;;;;;24.86;66.61;99383.52;1728905;83;21369;-81
2023/07/02 05:01:48;;;;;;;13.30;6.35;;;;;;;24.79;66.83;99387.20;1729048;83;21311;-81
2023/07/02 05:04:54;;;;;;;11.10;6.22;;;;;;;25.00;66.46;99385.90;1727936;83;21335;-81
2023/07/02 05:07:59;;;;;;;15.58;6.25;;;;;;;25.32;65.68;99387.31;1729171;83;21323;-80
2023/07/02 05:11:05;;;;;;;13.10;5.50;;;;;;;25.38;65.19;99383.31;1727793;83;21330;-80
2023/07/02 05:14:11;;;;;;;17.15;6.35;;;;;;;25.66;64.28;99393.63;1728019;83;21331;-81
2023/07/02 05:17:17;;;;;;;12.28;5.83;;;;;;;25.83;63.85;99393.73;1729187;83;21327;-80
2023/07/02 05:20:23;;;;;;;11.63;5.95;;;;;;;25.94;63.47;99395.29;1729137;83;21849;-81
2023/07/02 05:23:28;;;;;;;12.80;5.28;;;;;;;26.19;62.04;99392.13;1729088;83;21307;-81
2023/07/02 05:26:35;;;;;;;16.73;5.85;;;;;;;26.37;61.51;99394.68;1727766;83;21861;-80
2023/07/02 05:29:40;;;;;;;21.55;6.20;;;;;;;26.31;61.29;99397.30;1722711;81;21315;-81
2023/07/02 05:32:50;;;;;;;;;;;;;;;26.50;61.20;99400.14;1724270;83;21362;-80
2023/07/02 05:35:55;;;;;;;10.03;5.80;;;;;;;26.76;60.71;99406.17;1720763;83;20694;-80
2023/07/02 05:39:00;;;;;;;11.20;4.85;;;;;;;26.99;60.30;99407.19;1721772;83;21314;-81
2023/07/02 05:42:06;;;;;;;13.28;5.22;;;;;;;27.47;59.47;99402.70;1720332;83;21878;-81
2023/07/02 05:45:12;;;;;;;10.38;5.03;;;;;;;27.65;58.51;99402.36;1720416;83;21327;-81
2023/07/02 05:48:18;;;;;;;13.40;5.00;;;;;;;28.21;56.97;99401.21;1721759;83;21304;-81
2023/07/02 05:51:29;;;;;;;12.58;4.78;;;;;;;28.62;55.91;99403.12;1721803;83;21339;-81
2023/07/02 05:54:35;;;;;;;11.75;4.83;;;;;;;28.91;54.40;99404.09;1721744;83;21307;-81
2023/07/02 05:57:41;;;;;;;12.30;4.78;;;;;;;29.29;52.16;99400.31;1721584;83;21315;-80
2023/07/02 06:00:49;;;;;;;14.13;4.47;;;;;;;29.72;51.56;99401.13;1720717;83;21912;-81
2023/07/02 06:03:58;;;;;;;12.78;5.72;;;;;;;29.58;51.43;99403.23;1721597;83;21335;-81
2023/07/02 06:07:05;;;;;;;11.10;4.80;;;;;;;29.74;50.01;99396.02;1709899;83;21862;-81
2023/07/02 06:10:38;;;;;;;10.03;4.75;;;;;;;29.74;49.70;99391.22;1721696;83;21310;-81
2023/07/02 06:13:45;;;;;;;8.50;4.80;;;;;;;29.71;48.98;99394.67;1721612;83;21335;-81
2023/07/02 06:16:52;;;;;;;9.28;4.92;;;;;;;29.71;48.98;99394.67;1714951;83;21362;-81
2023/07/02 06:19:58;;;;;;;10.90;4.80;;;;;;;29.65;49.60;99393.75;1721581;83;21332;-81
2023/07/02 06:23:03;;;;;;;13.00;4.58;;;;;;;29.61;49.59;99402.59;1721662;83;21308;-81
2023/07/02 06:26:10;;;;;;;12.53;4.72;;;;;;;29.79;49.72;99393.05;1721190;83;21311;-81
2023/07/02 06:29:16;;;;;;;9.68;4.42;;;;;;;30.23;47.77;99382.73;1721900;83;21367;-81
2023/07/02 06:32:21;;;;;;;8.93;4.40;;;;;;;30.23;47.77;99382.73;1721545;83;21889;-81
2023/07/02 06:35:28;;;;;;;18.57;3.95;;;;;;;30.23;46.55;99394.84;1721537;83;21307;-81
2023/07/02 06:38:34;;;;;;;14.93;4.45;;;;;;;30.23;46.55;99394.84;1721624;83;21299;-81
2023/07/02 06:41:36;;;;;;;9.58;3.92;;;;;;;30.52;46.93;99391.39;1721560;83;21302;-80
2023/07/02 06:44:29;;;;;;;13.90;3.87;;;;;;;30.52;46.38;99396.20;1719147;83;21298;-80
2023/07/02 06:47:34;;;;;;;10.00;3.63;;;;;;;30.57;45.67;99401.69;1720677;83;21311;-81
2023/07/02 06:50:41;;;;;;;9.83;3.52;;;;;;;30.58;45.66;99404.75;1721923;83;21304;-81
2023/07/02 06:53:48;;;;;;;12.28;3.65;;;;;;;30.58;46.07;99401.92;1721615;83;21885;-80
2023/07/02 06:56:54;;;;;;;5.42;3.35;;;;;;;30.64;46.23;99404.86;1720141;83;21936;-80
2023/07/02 07:00:00;;;;;;;11.68;3.37;;;;;;;30.72;45.60;99404.03;1722326;83;21318;-81
2023/07/02 07:03:06;;;;;;;11.30;3.40;;;;;;;30.96;43.99;99400.73;1706727;83;21335;-81
2023/07/02 07:06:11;;;;;;;7.50;3.58;;;;;;;30.95;45.16;99403.28;1710469;83;21305;-81
2023/07/02 07:09:17;;;;;;;9.73;2.85;;;;;;;31.11;44.44;99395.14;1698894;84;21348;-81
2023/07/02 07:12:23;;;;;;;12.07;2.90;;;;;;;31.03;44.69;99400.20;1711333;84;21311;-81
2023/07/02 07:15:28;;;;;;;6.78;3.00;;;;;;;31.08;44.40;99400.61;1712692;84;21861;-81
2023/07/02 07:18:34;;;;;;;11.45;3.52;;;;;;;31.10;44.44;99402.51;1712927;83;21299;-81
2023/07/02 07:21:40;;;;;;;8.40;2.80;;;;;;;31.01;44.69;99401.14;1721648;83;21307;-81
2023/07/02 07:24:47;;;;;;;4.47;2.47;;;;;;;30.92;44.89;99401.14;1721494;83;21307;-81
2023/07/02 07:27:53;;;;;;;11.12;3.08;;;;;;;30.84;43.96;99406.79;1720585;83;21387;-81
2023/07/02 07:30:58;;;;;;;6.17;2.42;;;;;;;30.79;44.15;99401.56;1721481;83;21346;-80
2023/07/02 07:34:04;;;;;;;4.60;2.60;;;;;;;30.75;44.85;99409.02;1721543;83;21303;-81
2023/07/02 07:37:10;;;;;;;6.65;3.17;;;;;;;30.90;45.44;99402.62;1721095;83;21682;-80
2023/07/02 07:40:11;;;;;;;9.70;2.72;;;;;;;30.86;45.03;99404.45;1721863;83;21884;-81
2023/07/02 07:43:17;;;;;;;5.05;2.70;;;;;;;30.91;45.25;99403.72;1721672;83;21312;-81
2023/07/02 07:46:23;;;;;;;5.55;2.35;;;;;;;31.10;45.15;99397.72;1712812;83;21385;-81
2023/07/02 07:49:31;;;;;;;5.22;2.75;;;;;;;31.22;43.98;99399.25;1721905;83;21320;-80
2023/07/02 07:52:36;;;;;;;9.88;2.52;;;;;;;31.53;43.32;99400.45;1722455;83;21201;-81
2023/07/02 07:55:43;;;;;;;4.80;2.60;;;;;;;31.59;42.30;99400.27;1721564;83;21314;-81
2023/07/02 07:58:49;;;;;;;10.60;2.35;;;;;;;31.60;40.62;99395.67;1720223;83;21350;-80
2023/07/02 08:01:55;;;;;;;6.72;2.30;;;;;;;31.41;39.00;99398.08;1721506;83;21304;-80
2023/07/02 08:04:54;;;;;;;;;;;;;;;30.97;40.82;99395.91;1724293;83;21925;-81
2023/07/02 08:07:59;;;;;;;6.10;2.00;;;;;;;30.94;40.12;99396.56;1720753;83;20293;-81
2023/07/02 08:11:06;;;;;;;15.85;2.30;;;;;;;31.09;39.35;99396.63;1721607;83;21314;-81
2023/07/02 08:14:15;;;;;;;3.33;1.90;;;;;;;31.29;38.03;99401.03;1721569;83;21341;-81
2023/07/02 08:17:22;;;;;;;7.00;2.52;;;;;;;31.40;38.16;99403.48;1721171;83;22691;-81
2023/07/02 08:20:28;;;;;;;13.50;1.90;;;;;;;31.48;38.89;99400.64;1721482;83;21303;-81
2023/07/02 08:23:34;;;;;;;8.95;1.98;;;;;;;31.56;39.08;99394.69;1721553;83;21308;-80
2023/07/02 08:26:40;;;;;;;6.65;2.15;;;;;;;31.67;39.88;99394.58;1721519;83;21894;-81
2023/07/02 08:29:39;;;;;;;6.85;2.10;;;;;;;31.86;40.17;99396.20;1721531;83;21307;-80
2023/07/02 08:32:38;;;;;;;3.40;2.10;;;;;;;31.96;40.55;99395.80;1722189;81;21319;-81
2023/07/02 08:35:45;;;;;;;8.83;1.65;;;;;;;32.11;40.18;99395.21;1724049;83;21335;-80
2023/07/02 08:38:50;;;;;;;6.85;1.75;;;;;;;32.24;38.24;99401.80;1723410;83;21901;-81
2023/07/02 08:41:57;;;;;;;6.80;1.57;;;;;;;32.35;37.20;99400.80;1724309;83;21303;-81
2023/07/02 08:45:03;;;;;;;6.03;1.98;;;;;;;32.52;36.15;99401.55;1724228;83;21914;-81
2023/07/02 08:48:10;;;;;;;5.00;1.60;;;;;;;32.74;35.57;99406.59;1723657;83;21324;-81
2023/07/02 08:51:15;;;;;;;7.10;1.87;;;;;;;32.94;33.74;99413.48;1724151;83;21303;-79
2023/07/02 08:54:25;;;;;;;3.42;1.87;;;;;;;32.90;35.19;99402.56;1724115;83;21303;-81
2023/07/02 08:57:30;;;;;;;3.25;1.72;;;;;;;33.25;36.10;99409.56;1724174;83;21307;-81
2023/07/02 09:00:37;;;;;;;8.75;2.33;;;;;;;33.41;34.32;99413.99;1724255;83;21322;-81
2023/07/02 09:03:43;;;;;;;10.00;2.40;;;;;;;33.32;33.48;99411.25;1723665;83;21326;-81
2023/07/02 09:06:48;;;;;;;3.77;1.65;;;;;;;33.32;33.27;99416.91;1724094;83;21299;-80
2023/07/02 09:09:55;;;;;;;1.90;1.50;;;;;;;33.28;33.17;99415.95;1722840;83;21323;-81
2023/07/02 09:13:03;;;;;;;3.50;2.00;;;;;;;33.15;32.35;99414.84;1723144;82;21168;-81
2023/07/02 09:16:09;;;;;;;2.35;1.52;;;;;;;33.09;32.10;99413.41;1722887;83;21304;-81
2023/07/02 09:19:17;;;;;;;6.45;2.02;;;;;;;33.43;32.24;99423.58;1723397;83;21358;-81
2023/07/02 09:22:22;;;;;;;11.00;1.57;;;;;;;33.50;32.74;99412.48;1724274;83;21311;-80
2023/07/02 09:25:21;;;;;;;2.90;1.65;;;;;;;33.70;32.43;99419.27;1717137;83;21291;-81
2023/07/02 09:28:31;;;;;;;3.72;1.80;;;;;;;33.60;31.45;99417.72;1723059;83;21315;-81
2023/07/02 09:31:37;;;;;;;7.33;1.52;;;;;;;33.52;31.89;99413.80;1715862;83;21881;-81
2023/07/02 09:34:47;;;;;;;4.40;1.70;;;;;;;33.36;32.50;99414.22;1729710;82;21355;-81
2023/07/02 09:37:53;;;;;;;8.20;1.87;;;;;;;33.52;32.36;99422.90;1728911;83;21326;-81
2023/07/02 09:41:00;;;;;;;4.28;1.60;;;;;;;33.67;33.18;99415.71;1727222;83;21303;-81
2023/07/02 09:44:05;;;;;;;3.95;1.82;;;;;;;34.00;31.26;99402.30;1728521;83;21323;-81
2023/07/02 09:47:15;;;;;;;3.47;1.60;;;;;;;34.37;31.94;99404.27;1728665;83;21311;-81
2023/07/02 09:50:24;;;;;;;3.08;1.67;;;;;;;34.47;30.64;99407.47;1727222;83;21342;-81
2023/07/02 09:53:31;;;;;;;8.13;1.60;;;;;;;34.21;31.56;99402.77;1729067;83;21325;-81
2023/07/02 09:56:37;;;;;;;3.77;1.62;;;;;;;34.41;31.60;99399.55;1711378;83;21359;-81
2023/07/02 09:59:42;;;;;;;7.08;1.80;;;;;;;34.54;30.94;99405.47;1727816;83;21330;-81
2023/07/02 10:02:48;;;;;;;7.22;2.02;;;;;;;34.71;30.40;99404.34;1727802;83;21342;-81
2023/07/02 10:05:55;;;;;;;3.20;1.80;;;;;;;34.63;30.44;99401.90;1728516;83;21306;-81
2023/07/02 10:09:03;;;;;;;7.80;1.90;;;;;;;34.53;30.09;99399.53;1728451;83;21310;-81
2023/07/02 10:12:11;;;;;;;4.17;2.27;;;;;;;34.31;30.26;99395.19;1728578;83;21307;-81
2023/07/02 10:15:17;;;;;;;4.45;1.57;;;;;;;34.22;30.67;99390.23;1728659;83;21336;-81
2023/07/02 10:18:23;;;;;;;2.83;1.80;;;;;;;34.20;31.42;99392.58;1727241;83;21319;-81
2023/07/02 10:21:29;;;;;;;5.33;1.90;;;;;;;34.24;31.62;99389.27;1711582;83;21307;-81
2023/07/02 10:24:34;;;;;;;5.85;1.60;;;;;;;34.26;31.43;99389.16;1728621;83;21874;-80
2023/07/02 10:27:48;;;;;;;6.08;2.05;;;;;;;34.29;30.89;99384.17;1728599;83;21311;-81
2023/07/02 10:30:55;;;;;;;4.70;2.00;;;;;;;34.27;31.21;99380.88;1727475;83;21314;-81
2023/07/02 10:34:00;;;;;;;10.05;2.60;;;;;;;34.04;31.42;99382.56;1726872;81;21327;-81
2023/07/02 10:37:11;;;;;;;5.30;1.72;;;;;;;33.91;31.60;99376.61;1721777;83;21654;-80
2023/07/02 10:40:17;;;;;;;6.60;2.25;;;;;;;33.90;31.23;99384.30;1720878;83;21342;-81
2023/07/02 10:43:38;;;;;;;6.53;1.85;;;;;;;33.83;30.63;99376.40;1721663;83;21291;-81
2023/07/02 10:46:52;;;;;;;2.65;1.70;;;;;;;33.95;30.52;99373.34;1721818;83;21335;-80
2023/07/02 10:49:58;;;;;;;5.15;2.10;;;;;;;33.89;30.74;99376.98;1721191;83;21340;-80
2023/07/02 10:53:03;;;;;;;7.80;2.00;;;;;;;33.77;30.95;99376.97;1721767;83;21335;-80
2023/07/02 10:56:09;;;;;;;6.12;1.90;;;;;;;33.91;30.93;99380.87;1722509;83;21272;-81
2023/07/02 10:59:16;;;;;;;8.90;2.20;;;;;;;33.92;29.27;99372.59;1721539;83;21882;-80
2023/07/02 11:02:23;;;;;;;8.88;2.02;;;;;;;33.93;29.46;99382.19;1721213;83;21350;-81
2023/07/02 11:05:30;;;;;;;10.58;2.20;;;;;;;34.25;29.14;99381.84;1720865;83;22507;-81
2023/07/02 11:08:45;;;;;;;6.53;1.95;;;;;;;34.03;29.47;99378.08;1721593;83;21316;-80
2023/07/02 11:11:45;;;;;;;5.35;2.00;;;;;;;33.93;28.69;99377.93;1721606;83;21295;-81
2023/07/02 11:14:52;;;;;;;6.90;1.82;;;;;;;33.74;28.65;99366.35;1720147;83;21320;-81
2023/07/02 11:17:58;;;;;;;9.25;2.17;;;;;;;33.88;28.76;99381.57;1720251;83;22516;-80
2023/07/02 11:21:05;;;;;;;6.15;2.00;;;;;;;33.86;28.81;99374.84;1720741;83;21347;-80
2023/07/02 11:24:16;;;;;;;4.75;1.95;;;;;;;33.81;27.26;99375.91;1721500;83;21310;-80
2023/07/02 11:27:28;;;;;;;7.25;1.90;;;;;;;33.80;28.25;99371.42;1721512;83;21328;-81
2023/07/02 11:30:35;;;;;;;10.58;1.87;;;;;;;33.87;28.63;99372.83;1713009;83;21307;-80
2023/07/02 11:33:46;;;;;;;8.58;1.92;;;;;;;33.81;28.13;99365.16;1721898;83;21330;-81
2023/07/02 11:36:53;;;;;;;9.98;2.20;;;;;;;33.66;27.84;99363.86;1728111;83;21877;-81
2023/07/02 11:40:00;;;;;;;5.83;2.00;;;;;;;33.63;28.12;99363.13;1728684;83;21299;-80
2023/07/02 11:43:09;;;;;;;4.80;1.98;;;;;;;33.64;28.49;99367.62;1728593;83;21310;-80
2023/07/02 11:46:16;;;;;;;5.53;1.90;;;;;;;33.69;28.76;99363.72;1727113;83;21323;-80
2023/07/02 11:49:22;;;;;;;5.47;1.77;;;;;;;33.80;28.87;99367.17;1727436;83;21318;-80
2023/07/02 11:52:29;;;;;;;3.58;1.72;;;;;;;33.74;29.14;99369.19;1728569;83;21303;-81
2023/07/02 11:55:34;;;;;;;8.60;2.08;;;;;;;33.76;29.75;99366.22;1728483;83;21897;-81
2023/07/02 11:58:40;;;;;;;3.60;1.80;;;;;;;33.99;29.90;99370.03;1728590;83;22659;-80
2023/07/02 12:01:47;;;;;;;4.15;1.67;;;;;;;33.92;28.88;99372.00;1727457;83;21684;-80
2023/07/02 12:04:54;;;;;;;5.12;2.10;;;;;;;34.02;29.38;99369.33;1728620;82;21866;-80
2023/07/02 12:08:03;;;;;;;4.28;2.15;;;;;;;33.80;29.50;99364.33;1728635;83;21303;-81
2023/07/02 12:11:08;;;;;;;7.47;2.00;;;;;;;33.65;29.16;99362.20;1728046;83;21357;-81
2023/07/02 12:14:12;;;;;;;3.40;1.67;;;;;;;33.89;28.91;99360.56;1728672;83;21323;-81
2023/07/02 12:17:18;;;;;;;2.22;1.40;;;;;;;33.81;29.16;99364.56;1727203;83;21323;-81
2023/07/02 12:20:24;;;;;;;5.47;2.30;;;;;;;33.71;29.69;99359.96;1727136;83;21354;-81
2023/07/02 12:23:29;;;;;;;5.25;1.85;;;;;;;33.84;29.00;99353.11;1727214;83;21303;-81
2023/07/02 12:26:36;;;;;;;8.88;2.25;;;;;;;33.80;29.06;99361.50;1728689;83;21349;-81
2023/07/02 12:29:45;;;;;;;4.72;1.87;;;;;;;33.67;28.39;99360.42;1728637;83;21330;-81
2023/07/02 12:32:51;;;;;;;4.50;1.85;;;;;;;33.75;28.72;99355.23;1727286;83;21863;-81
2023/07/02 12:35:59;;;;;;;3.00;1.70;;;;;;;33.85;28.81;99352.52;1728236;83;21354;-81
2023/07/02 12:39:06;;;;;;;4.72;1.87;;;;;;;33.77;29.44;99357.94;1727122;83;21952;-81
2023/07/02 12:42:11;;;;;;;5.72;1.95;;;;;;;33.90;29.20;99352.28;1727855;83;21905;-81
2023/07/02 12:45:17;;;;;;;6.85;1.90;;;;;;;33.69;28.96;99356.07;1728454;83;21299;-81
2023/07/02 12:48:23;;;;;;;2.98;1.80;;;;;;;33.50;29.48;99358.63;1728679;83;21306;-81
2023/07/02 12:51:29;;;;;;;5.28;1.67;;;;;;;33.52;28.76;99352.03;1727151;83;21363;-81
2023/07/02 12:54:35;;;;;;;4.25;1.90;;;;;;;33.59;28.74;99349.42;1727160;83;21314;-80
2023/07/02 12:57:42;;;;;;;2.45;1.52;;;;;;;33.67;28.79;99354.16;1728647;83;21323;-81
2023/07/02 13:00:48;;;;;;;4.42;1.67;;;;;;;33.87;28.86;99349.55;1728415;83;21645;-81
2023/07/02 13:03:55;;;;;;;5.58;1.90;;;;;;;33.59;28.44;99345.17;1727158;83;21897;-80
2023/07/02 13:07:01;;;;;;;2.60;1.52;;;;;;;33.45;29.63;99351.77;1728095;83;22012;-80
2023/07/02 13:13:30;;;;;;;5.53;1.87;;;;;;;33.62;28.63;99347.31;1950536;73;23449;-82
2023/07/02 13:16:36;;;;;;;3.62;1.80;;;;;;;33.61;28.86;99350.52;1847604;77;21283;-82
2023/07/02 13:19:44;;;;;;;2.25;1.65;;;;;;;33.68;28.28;99341.63;1881824;76;21272;-82
2023/07/02 13:22:50;;;;;;;5.72;2.02;;;;;;;33.68;27.54;99339.39;1845780;77;21290;-82
2023/07/02 13:25:55;;;;;;;3.17;1.60;;;;;;;33.90;27.33;99347.43;1845774;77;21342;-81
2023/07/02 13:29:00;;;;;;;3.75;1.70;;;;;;;33.81;27.83;99341.88;1847886;77;21833;-79
2023/07/02 13:32:06;;;;;;;2.72;1.70;;;;;;;33.80;27.96;99342.24;1847010;77;21330;-79
2023/07/02 13:35:08;;;;;;;10.00;1.52;;;;;;;33.73;28.40;99341.39;1847409;77;21319;-79
2023/07/02 13:38:13;;;;;;;5.70;1.85;;;;;;;33.57;27.56;99331.95;1845771;77;21287;-80
2023/07/02 13:41:20;;;;;;;4.65;1.80;;;;;;;33.83;27.48;99334.45;1845730;77;21282;-79
2023/07/02 13:44:27;;;;;;;3.08;1.55;;;;;;;33.88;27.90;99329.09;1845822;77;21326;-80
2023/07/02 13:47:33;;;;;;;4.50;1.92;;;;;;;33.58;27.92;99330.77;1845849;77;21294;-80
2023/07/02 13:50:33;;;;;;;2.27;1.70;;;;;;;33.55;28.19;99323.81;1847375;77;21291;-79
2023/07/02 13:53:25;;;;;;;4.35;1.92;;;;;;;33.48;28.19;99328.41;1845973;77;21318;-79
2023/07/02 13:56:31;;;;;;;4.87;1.90;;;;;;;33.32;28.20;99321.98;1846001;77;21833;-79
2023/07/02 13:59:36;;;;;;;4.60;2.00;;;;;;;33.09;28.50;99323.59;1845765;77;21865;-79
2023/07/02 14:02:43;;;;;;;4.30;1.90;;;;;;;33.25;28.54;99313.81;1846678;77;21231;-80
2023/07/02 14:05:50;;;;;;;4.33;1.80;;;;;;;32.88;28.89;99312.87;1847382;77;21833;-79
2023/07/02 14:08:56;;;;;;;6.17;1.70;;;;;;;32.87;29.68;99311.22;1847429;77;21862;-79
2023/07/02 14:12:02;;;;;;;3.37;2.08;;;;;;;32.68;30.20;99311.74;1847021;77;21299;-79
2023/07/02 14:15:13;;;;;;;5.65;1.82;;;;;;;32.98;29.57;99310.47;1844253;78;21284;-79
2023/07/02 14:18:18;;;;;;;6.40;1.65;;;;;;;32.97;29.56;99303.13;1844022;78;21281;-80
2023/07/02 14:21:23;;;;;;;4.58;1.77;;;;;;;32.78;29.38;99303.63;1844118;78;21295;-80
2023/07/02 14:24:30;;;;;;;2.70;1.77;;;;;;;32.84;29.06;99304.23;1843505;78;21295;-80
2023/07/02 14:27:39;;;;;;;4.33;1.57;;;;;;;32.44;29.47;99295.48;1843258;78;21316;-80
2023/07/02 14:30:45;;;;;;;3.40;1.80;;;;;;;32.41;30.04;99296.17;1843497;78;21299;-80
2023/07/02 14:33:50;;;;;;;3.15;1.82;;;;;;;32.55;30.24;99299.53;1841804;78;22593;-80
2023/07/02 14:36:56;;;;;;;4.90;1.77;;;;;;;32.76;30.36;99296.68;1843538;78;21278;-80